createdAt,value
2023-05-20T00:01:04.983Z,95559
2023-05-20T00:02:14.636Z,95560
2023-05-20T00:03:24.339Z,95559
2023-05-20T00:04:33.018Z,95559
2023-05-20T00:05:42.808Z,95557
2023-05-20T00:06:52.292Z,95555
2023-05-20T00:08:00.939Z,95553
2023-05-20T00:09:09.797Z,95552
2023-05-20T00:10:19.329Z,95552
2023-05-20T00:11:27.973Z,95556
2023-05-20T00:12:37.684Z,95555
2023-05-20T00:13:45.359Z,95556
2023-05-20T00:14:56.083Z,95551
2023-05-20T00:16:04.777Z,95554
2023-05-20T00:17:14.420Z,95552
2023-05-20T00:18:24.117Z,95549
2023-05-20T00:19:31.811Z,95552
2023-05-20T00:20:41.486Z,95551
2023-05-20T00:21:51.195Z,95549
2023-05-20T00:22:59.908Z,95552
2023-05-20T00:24:09.593Z,95549
2023-05-20T00:25:18.328Z,95544
2023-05-20T00:26:27.909Z,95544
2023-05-20T00:27:37.593Z,95549
2023-05-20T00:28:45.262Z,95549
2023-05-20T00:29:53.925Z,95552
2023-05-20T00:31:02.588Z,95557
2023-05-20T00:32:10.263Z,95554
2023-05-20T00:33:18.990Z,95556
2023-05-20T00:34:27.572Z,95552
2023-05-20T00:35:36.375Z,95554
2023-05-20T00:36:45.898Z,95552
2023-05-20T00:37:53.587Z,95552
2023-05-20T00:39:02.225Z,95553
2023-05-20T00:40:13.021Z,95553
2023-05-20T00:41:20.659Z,95550
2023-05-20T00:42:29.338Z,95552
2023-05-20T00:43:39.015Z,95551
2023-05-20T00:44:48.666Z,95552
2023-05-20T00:45:58.409Z,95551
2023-05-20T00:47:07.069Z,95554
2023-05-20T00:48:15.710Z,95549
2023-05-20T00:49:25.403Z,95547
2023-05-20T00:50:34.094Z,95545
2023-05-20T00:51:42.814Z,95556
2023-05-20T00:52:51.452Z,95551
2023-05-20T00:54:00.158Z,95552
2023-05-20T00:55:09.849Z,95549
2023-05-20T00:56:18.544Z,95550
2023-05-20T00:57:28.237Z,95549
2023-05-20T00:58:37.893Z,95553
2023-05-20T00:59:45.529Z,95551
2023-05-20T01:00:55.257Z,95551
2023-05-20T01:02:04.980Z,95551
2023-05-20T01:03:13.661Z,95543
2023-05-20T01:04:23.276Z,95540
2023-05-20T01:05:31.062Z,95542
2023-05-20T01:06:40.744Z,95537
2023-05-20T01:07:50.446Z,95538
2023-05-20T01:08:59.089Z,95539
2023-05-20T01:10:07.759Z,95537
2023-05-20T01:11:17.476Z,95538
2023-05-20T01:12:25.103Z,95539
2023-05-20T01:13:34.861Z,95534
2023-05-20T01:14:44.500Z,95536
2023-05-20T01:15:53.200Z,95533
2023-05-20T01:17:02.883Z,95533
2023-05-20T01:18:12.611Z,95533
2023-05-20T01:19:22.376Z,95530
2023-05-20T01:20:32.032Z,95529
2023-05-20T01:21:40.696Z,95530
2023-05-20T01:22:50.429Z,95531
2023-05-20T01:23:58.131Z,95535
2023-05-20T01:25:06.781Z,95527
2023-05-20T01:26:16.424Z,95528
2023-05-20T01:27:25.076Z,95531
2023-05-20T01:28:34.776Z,95528
2023-05-20T01:29:43.515Z,95527
2023-05-20T01:30:53.279Z,95528
2023-05-20T01:32:02.887Z,95524
2023-05-20T01:33:10.655Z,95528
2023-05-20T01:34:19.271Z,95525
2023-05-20T01:35:27.931Z,95530
2023-05-20T01:36:35.670Z,95525
2023-05-20T01:37:45.380Z,95525
2023-05-20T01:38:55.068Z,95525
2023-05-20T01:40:03.806Z,95526
2023-05-20T01:41:13.549Z,95527
2023-05-20T01:42:21.295Z,95531
2023-05-20T01:43:30.980Z,95531
2023-05-20T01:44:40.605Z,95525
2023-05-20T01:45:49.302Z,95527
2023-05-20T01:46:59.002Z,95523
2023-05-20T01:48:08.757Z,95522
2023-05-20T01:49:18.360Z,95520
2023-05-20T01:50:28.020Z,95519
2023-05-20T01:51:37.683Z,95518
2023-05-20T01:52:46.404Z,95514
2023-05-20T01:53:56.049Z,95515
2023-05-20T01:55:04.708Z,95514
2023-05-20T01:56:13.363Z,95511
2023-05-20T01:57:22.053Z,95509
2023-05-20T01:58:30.755Z,95509
2023-05-20T01:59:40.418Z,95505
2023-05-20T02:00:48.109Z,95515
2023-05-20T02:01:57.834Z,95513
2023-05-20T02:03:07.486Z,95511
2023-05-20T02:04:16.184Z,95511
2023-05-20T02:05:25.993Z,95510
2023-05-20T02:06:33.595Z,95509
2023-05-20T02:07:43.307Z,95509
2023-05-20T02:08:53.049Z,95507
2023-05-20T02:10:01.706Z,95508
2023-05-20T02:11:11.395Z,95505
2023-05-20T02:12:19.099Z,95507
2023-05-20T02:13:28.738Z,95506
2023-05-20T02:14:38.399Z,95503
2023-05-20T02:15:47.077Z,95504
2023-05-20T02:16:56.805Z,95501
2023-05-20T02:18:06.643Z,95502
2023-05-20T02:19:15.287Z,95505
2023-05-20T02:20:25.142Z,95504
2023-05-20T02:21:33.796Z,95507
2023-05-20T02:22:43.511Z,95511
2023-05-20T02:23:53.248Z,95517
2023-05-20T02:25:00.935Z,95516
2023-05-20T02:26:09.580Z,95520
2023-05-20T02:27:19.301Z,95522
2023-05-20T02:28:28.933Z,95518
2023-05-20T02:29:38.624Z,95520
2023-05-20T02:30:47.275Z,95515
2023-05-20T02:31:55.914Z,95518
2023-05-20T02:33:05.659Z,95516
2023-05-20T02:34:15.290Z,95515
2023-05-20T02:35:23.919Z,95512
2023-05-20T02:36:32.687Z,95511
2023-05-20T02:37:42.431Z,95510
2023-05-20T02:38:52.134Z,95515
2023-05-20T02:40:01.771Z,95515
2023-05-20T02:41:10.415Z,95517
2023-05-20T02:42:20.132Z,95514
2023-05-20T02:43:28.822Z,95514
2023-05-20T02:44:37.567Z,95513
2023-05-20T02:45:48.244Z,95511
2023-05-20T02:46:56.895Z,95510
2023-05-20T02:48:06.646Z,95510
2023-05-20T02:49:15.327Z,95511
2023-05-20T02:50:24.017Z,95516
2023-05-20T02:51:33.667Z,95518
2023-05-20T02:52:42.516Z,95513
2023-05-20T02:53:51.024Z,95517
2023-05-20T02:54:59.698Z,95512
2023-05-20T02:56:07.343Z,95511
2023-05-20T02:57:17.067Z,95515
2023-05-20T02:58:26.757Z,95510
2023-05-20T02:59:36.419Z,95511
2023-05-20T03:00:46.110Z,95513
2023-05-20T03:01:53.848Z,95507
2023-05-20T03:03:02.744Z,95508
2023-05-20T03:04:11.311Z,95507
2023-05-20T03:05:20.974Z,95511
2023-05-20T03:06:30.658Z,95510
2023-05-20T03:07:40.352Z,95509
2023-05-20T03:08:49.999Z,95502
2023-05-20T03:09:59.682Z,95510
2023-05-20T03:11:08.339Z,95507
2023-05-20T03:12:18.012Z,95506
2023-05-20T03:13:25.662Z,95511
2023-05-20T03:14:34.295Z,95516
2023-05-20T03:15:43.961Z,95516
2023-05-20T03:16:51.686Z,95514
2023-05-20T03:18:00.359Z,95514
2023-05-20T03:19:10.200Z,95513
2023-05-20T03:20:17.851Z,95507
2023-05-20T03:21:27.567Z,95505
2023-05-20T03:22:36.281Z,95502
2023-05-20T03:23:45.916Z,95505
2023-05-20T03:24:55.645Z,95501
2023-05-20T03:26:04.416Z,95501
2023-05-20T03:27:14.082Z,95500
2023-05-20T03:28:23.737Z,95496
2023-05-20T03:29:32.410Z,95497
2023-05-20T03:30:42.099Z,95499
2023-05-20T03:31:51.948Z,95503
2023-05-20T03:33:00.503Z,95498
2023-05-20T03:34:10.185Z,95504
2023-05-20T03:35:17.881Z,95506
2023-05-20T03:36:26.573Z,95508
2023-05-20T03:37:36.232Z,95507
2023-05-20T03:38:44.908Z,95507
2023-05-20T03:39:53.525Z,95511
2023-05-20T03:41:02.331Z,95510
2023-05-20T03:42:12.021Z,95511
2023-05-20T03:43:21.658Z,95513
2023-05-20T03:44:29.309Z,95506
2023-05-20T03:45:38.006Z,95507
2023-05-20T03:46:47.689Z,95509
2023-05-20T03:47:56.329Z,95508
2023-05-20T03:49:04.980Z,95511
2023-05-20T03:50:13.653Z,95512
2023-05-20T03:51:22.351Z,95514
2023-05-20T03:52:32.054Z,95518
2023-05-20T03:53:39.712Z,95520
2023-05-20T03:54:49.476Z,95522
2023-05-20T03:55:59.119Z,95521
2023-05-20T03:57:08.809Z,95516
2023-05-20T03:58:17.515Z,95516
2023-05-20T03:59:25.211Z,95520
2023-05-20T04:00:33.911Z,95513
2023-05-20T04:01:42.594Z,95515
2023-05-20T04:02:51.249Z,95517
2023-05-20T04:04:00.911Z,95517
2023-05-20T04:05:08.661Z,95523
2023-05-20T04:06:17.277Z,95522
2023-05-20T04:07:26.939Z,95520
2023-05-20T04:08:35.583Z,95516
2023-05-20T04:09:45.339Z,95520
2023-05-20T04:10:55.095Z,95516
2023-05-20T04:12:04.849Z,95517
2023-05-20T04:13:14.493Z,95511
2023-05-20T04:14:23.231Z,95514
2023-05-20T04:15:33.027Z,95516
2023-05-20T04:16:42.633Z,95510
2023-05-20T04:17:50.276Z,95509
2023-05-20T04:18:58.946Z,95510
2023-05-20T04:20:07.690Z,95509
2023-05-20T04:21:16.337Z,95513
2023-05-20T04:22:26.006Z,95514
2023-05-20T04:23:33.700Z,95516
2023-05-20T04:24:42.372Z,95518
2023-05-20T04:25:52.017Z,95519
2023-05-20T04:26:59.690Z,95512
2023-05-20T04:28:09.391Z,95512
2023-05-20T04:29:18.065Z,95511
2023-05-20T04:30:27.777Z,95509
2023-05-20T04:31:37.459Z,95512
2023-05-20T04:32:46.149Z,95513
2023-05-20T04:33:54.753Z,95511
2023-05-20T04:35:04.438Z,95508
2023-05-20T04:36:13.101Z,95509
2023-05-20T04:37:20.794Z,95506
2023-05-20T04:38:29.754Z,95502
2023-05-20T04:39:38.163Z,95507
2023-05-20T04:40:47.851Z,95509
2023-05-20T04:41:55.559Z,95506
2023-05-20T04:43:04.284Z,95504
2023-05-20T04:44:13.932Z,95503
2023-05-20T04:45:22.596Z,95504
2023-05-20T04:46:31.374Z,95504
2023-05-20T04:47:41.025Z,95498
2023-05-20T04:48:50.666Z,95502
2023-05-20T04:50:00.367Z,95502
2023-05-20T04:51:07.997Z,95503
2023-05-20T04:52:16.768Z,95499
2023-05-20T04:53:26.440Z,95500
2023-05-20T04:54:34.184Z,95505
2023-05-20T04:55:42.827Z,95500
2023-05-20T04:56:51.509Z,95503
2023-05-20T04:58:01.169Z,95503
2023-05-20T04:59:10.846Z,95508
2023-05-20T05:00:20.519Z,95507
2023-05-20T05:01:30.279Z,95508
2023-05-20T05:02:39.955Z,95503
2023-05-20T05:03:48.553Z,95506
2023-05-20T05:04:58.285Z,95508
2023-05-20T05:06:06.893Z,95510
2023-05-20T05:07:15.623Z,95511
2023-05-20T05:08:25.244Z,95510
2023-05-20T05:09:35.020Z,95511
2023-05-20T05:10:43.649Z,95508
2023-05-20T05:11:52.284Z,95511
2023-05-20T05:13:00.952Z,95505
2023-05-20T05:14:10.606Z,95506
2023-05-20T05:15:20.344Z,95509
2023-05-20T05:16:30.028Z,95501
2023-05-20T05:17:39.750Z,95500
2023-05-20T05:18:47.431Z,95500
2023-05-20T05:19:56.072Z,95495
2023-05-20T05:21:05.786Z,95496
2023-05-20T05:22:13.443Z,95489
2023-05-20T05:23:22.170Z,95492
2023-05-20T05:24:31.846Z,95491
2023-05-20T05:25:41.550Z,95491
2023-05-20T05:26:51.223Z,95487
2023-05-20T05:28:00.865Z,95483
2023-05-20T05:29:11.774Z,95482
2023-05-20T05:30:20.316Z,95480
2023-05-20T05:31:27.974Z,95480
2023-05-20T05:32:36.651Z,95481
2023-05-20T05:33:45.271Z,95480
2023-05-20T05:34:54.962Z,95484
2023-05-20T05:36:04.629Z,95483
2023-05-20T05:37:12.320Z,95478
2023-05-20T05:38:20.998Z,95480
2023-05-20T05:39:30.681Z,95481
2023-05-20T05:40:39.357Z,95483
2023-05-20T05:41:49.005Z,95488
2023-05-20T05:42:57.668Z,95490
2023-05-20T05:44:06.346Z,95493
2023-05-20T05:45:15.992Z,95490
2023-05-20T05:46:25.802Z,95490
2023-05-20T05:47:35.509Z,95494
2023-05-20T05:48:45.065Z,95495
2023-05-20T05:49:54.715Z,95496
2023-05-20T05:51:03.423Z,95494
2023-05-20T05:52:12.054Z,95495
2023-05-20T05:53:21.757Z,95494
2023-05-20T05:54:31.413Z,95493
2023-05-20T05:55:40.119Z,95495
2023-05-20T05:56:48.775Z,95491
2023-05-20T05:57:56.637Z,95490
2023-05-20T05:59:06.738Z,95486
2023-05-20T06:00:16.690Z,95488
2023-05-20T06:01:25.476Z,95492
2023-05-20T06:02:35.389Z,95495
2023-05-20T06:03:45.202Z,95493
2023-05-20T06:04:54.924Z,95494
2023-05-20T06:06:04.701Z,95494
2023-05-20T06:07:12.441Z,95498
2023-05-20T06:08:21.089Z,95499
2023-05-20T06:09:30.754Z,95497
2023-05-20T06:10:38.446Z,95499
2023-05-20T06:11:48.113Z,95500
2023-05-20T06:12:56.768Z,95501
2023-05-20T06:14:06.418Z,95498
2023-05-20T06:15:16.079Z,95497
2023-05-20T06:16:24.869Z,95499
2023-05-20T06:17:33.474Z,95495
2023-05-20T06:18:43.161Z,95494
2023-05-20T06:19:51.842Z,95494
2023-05-20T06:21:00.592Z,95494
2023-05-20T06:22:09.243Z,95496
2023-05-20T06:23:18.928Z,95497
2023-05-20T06:24:28.596Z,95496
2023-05-20T06:25:37.319Z,95496
2023-05-20T06:26:45.974Z,95495
2023-05-20T06:27:56.614Z,95492
2023-05-20T06:29:04.377Z,95494
2023-05-20T06:30:14.064Z,95491
2023-05-20T06:31:22.813Z,95488
2023-05-20T06:32:31.488Z,95491
2023-05-20T06:33:41.126Z,95489
2023-05-20T06:34:49.818Z,95489
2023-05-20T06:35:58.527Z,95487
2023-05-20T06:37:08.133Z,95486
2023-05-20T06:38:15.872Z,95482
2023-05-20T06:39:24.568Z,95485
2023-05-20T06:40:33.266Z,95484
2023-05-20T06:41:42.929Z,95488
2023-05-20T06:42:52.584Z,95486
2023-05-20T06:44:00.226Z,95492
2023-05-20T06:45:09.987Z,95491
2023-05-20T06:46:19.674Z,95487
2023-05-20T06:47:27.296Z,95490
2023-05-20T06:48:37.010Z,95488
2023-05-20T06:49:47.626Z,95492
2023-05-20T06:50:55.326Z,95493
2023-05-20T06:52:05.105Z,95489
2023-05-20T06:53:14.749Z,95491
2023-05-20T06:54:24.552Z,95489
2023-05-20T06:55:34.429Z,95487
2023-05-20T06:56:41.912Z,95481
2023-05-20T06:57:50.560Z,95482
2023-05-20T06:59:00.244Z,95482
2023-05-20T07:00:09.897Z,95476
2023-05-20T07:01:19.558Z,95478
2023-05-20T07:02:27.216Z,95476
2023-05-20T07:03:36.108Z,95475
2023-05-20T07:04:45.793Z,95476
2023-05-20T07:05:53.486Z,95478
2023-05-20T07:07:03.141Z,95480
2023-05-20T07:08:11.852Z,95481
2023-05-20T07:09:20.481Z,95484
2023-05-20T07:10:30.186Z,95481
2023-05-20T07:11:38.890Z,95487
2023-05-20T07:12:48.607Z,95486
2023-05-20T07:13:58.266Z,95488
2023-05-20T07:15:07.925Z,95488
2023-05-20T07:16:16.723Z,95487
2023-05-20T07:17:26.341Z,95486
2023-05-20T07:18:35.016Z,95479
2023-05-20T07:19:44.672Z,95485
2023-05-20T07:20:52.356Z,95484
2023-05-20T07:22:02.030Z,95482
2023-05-20T07:23:11.752Z,95485
2023-05-20T07:24:20.473Z,95480
2023-05-20T07:25:30.147Z,95473
2023-05-20T07:26:38.834Z,95473
2023-05-20T07:27:48.557Z,95473
2023-05-20T07:28:58.214Z,95473
2023-05-20T07:30:06.893Z,95467
2023-05-20T07:31:16.619Z,95476
2023-05-20T07:32:26.262Z,95471
2023-05-20T07:33:35.009Z,95470
2023-05-20T07:34:44.707Z,95468
2023-05-20T07:35:54.551Z,95463
2023-05-20T07:37:03.164Z,95463
2023-05-20T07:38:12.874Z,95459
2023-05-20T07:39:21.514Z,95466
2023-05-20T07:40:29.206Z,95464
2023-05-20T07:41:39.001Z,95468
2023-05-20T07:42:46.686Z,95468
2023-05-20T07:43:55.341Z,95470
2023-05-20T07:45:04.007Z,95470
2023-05-20T07:46:13.714Z,95467
2023-05-20T07:47:23.321Z,95463
2023-05-20T07:48:30.974Z,95464
2023-05-20T07:49:40.633Z,95461
2023-05-20T07:50:50.331Z,95464
2023-05-20T07:52:01.594Z,95460
2023-05-20T07:53:09.658Z,95458
2023-05-20T07:54:18.385Z,95460
2023-05-20T07:55:28.039Z,95461
2023-05-20T07:56:36.713Z,95460
2023-05-20T07:57:45.335Z,95456
2023-05-20T07:58:55.043Z,95457
2023-05-20T08:00:03.774Z,95462
2023-05-20T08:01:12.459Z,95461
2023-05-20T08:02:22.155Z,95467
2023-05-20T08:03:29.823Z,95460
2023-05-20T08:04:38.577Z,95463
2023-05-20T08:05:48.121Z,95462
2023-05-20T08:06:56.785Z,95462
2023-05-20T08:08:06.506Z,95465
2023-05-20T08:09:13.328Z,95457
2023-05-20T08:10:23.029Z,95456
2023-05-20T08:11:32.636Z,95452
2023-05-20T08:12:40.319Z,95450
2023-05-20T08:13:49.047Z,95444
2023-05-20T08:14:58.711Z,95446
2023-05-20T08:16:08.367Z,95443
2023-05-20T08:17:18.080Z,95441
2023-05-20T08:18:25.679Z,95443
2023-05-20T08:19:34.357Z,95439
2023-05-20T08:20:43.994Z,95442
2023-05-20T08:21:51.672Z,95440
2023-05-20T08:23:00.362Z,95440
2023-05-20T08:24:10.034Z,95437
2023-05-20T08:25:18.702Z,95438
2023-05-20T08:26:28.378Z,95433
2023-05-20T08:27:36.096Z,95432
2023-05-20T08:28:45.790Z,95435
2023-05-20T08:29:55.436Z,95439
2023-05-20T08:31:05.172Z,95439
2023-05-20T08:32:13.770Z,95439
2023-05-20T08:33:22.460Z,95442
2023-05-20T08:34:32.193Z,95444
2023-05-20T08:35:41.883Z,95440
2023-05-20T08:36:50.564Z,95438
2023-05-20T08:37:58.211Z,95434
2023-05-20T08:39:07.883Z,95440
2023-05-20T08:40:16.539Z,95441
2023-05-20T08:41:25.192Z,95441
2023-05-20T08:42:34.933Z,95442
2023-05-20T08:43:44.622Z,95436
2023-05-20T08:44:54.290Z,95434
2023-05-20T08:46:04.027Z,95432
2023-05-20T08:47:13.680Z,95433
2023-05-20T08:48:22.340Z,95438
2023-05-20T08:49:30.998Z,95434
2023-05-20T08:50:39.719Z,95436
2023-05-20T08:51:48.371Z,95431
2023-05-20T08:52:58.022Z,95430
2023-05-20T08:54:07.722Z,95433
2023-05-20T08:55:16.405Z,95433
2023-05-20T08:56:25.083Z,95434
2023-05-20T08:57:34.723Z,95433
2023-05-20T08:58:43.396Z,95433
2023-05-20T08:59:53.081Z,95430
2023-05-20T09:01:01.797Z,95434
2023-05-20T09:02:11.507Z,95431
2023-05-20T09:03:21.090Z,95429
2023-05-20T09:04:29.866Z,95434
2023-05-20T09:05:39.520Z,95434
2023-05-20T09:06:49.194Z,95429
2023-05-20T09:07:57.857Z,95437
2023-05-20T09:09:07.507Z,95429
2023-05-20T09:10:16.186Z,95434
2023-05-20T09:11:24.887Z,95436
2023-05-20T09:12:34.534Z,95432
2023-05-20T09:13:44.197Z,95430
2023-05-20T09:14:52.893Z,95433
2023-05-20T09:16:02.566Z,95430
2023-05-20T09:17:11.281Z,95436
2023-05-20T09:18:19.903Z,95435
2023-05-20T09:19:28.608Z,95435
2023-05-20T09:20:37.469Z,95435
2023-05-20T09:21:46.936Z,95433
2023-05-20T09:22:54.596Z,95436
2023-05-20T09:24:03.266Z,95433
2023-05-20T09:25:12.948Z,95434
2023-05-20T09:26:21.583Z,95438
2023-05-20T09:27:30.227Z,95436
2023-05-20T09:28:38.933Z,95432
2023-05-20T09:29:48.581Z,95436
2023-05-20T09:30:58.240Z,95430
2023-05-20T09:32:07.927Z,95430
2023-05-20T09:33:16.605Z,95434
2023-05-20T09:34:26.249Z,95431
2023-05-20T09:35:35.089Z,95434
2023-05-20T09:36:44.590Z,95433
2023-05-20T09:37:52.315Z,95431
2023-05-20T09:39:01.978Z,95430
2023-05-20T09:40:11.655Z,95432
2023-05-20T09:41:21.299Z,95436
2023-05-20T09:42:30.979Z,95433
2023-05-20T09:43:38.625Z,95437
2023-05-20T09:44:47.269Z,95435
2023-05-20T09:45:57.156Z,95431
2023-05-20T09:47:07.749Z,95431
2023-05-20T09:48:15.523Z,95430
2023-05-20T09:49:25.156Z,95429
2023-05-20T09:50:33.874Z,95424
2023-05-20T09:51:43.572Z,95421
2023-05-20T09:52:53.250Z,95418
2023-05-20T09:54:02.888Z,95419
2023-05-20T09:55:11.550Z,95419
2023-05-20T09:56:20.232Z,95422
2023-05-20T09:57:29.892Z,95416
2023-05-20T09:58:37.590Z,95419
2023-05-20T09:59:46.242Z,95414
2023-05-20T10:00:54.931Z,95419
2023-05-20T10:02:04.598Z,95411
2023-05-20T10:03:14.397Z,95406
2023-05-20T10:04:21.982Z,95406
2023-05-20T10:05:30.725Z,95407
2023-05-20T10:06:40.438Z,95409
2023-05-20T10:07:49.095Z,95406
2023-05-20T10:08:57.784Z,95410
2023-05-20T10:10:07.554Z,95405
2023-05-20T10:11:16.238Z,95404
2023-05-20T10:12:25.895Z,95395
2023-05-20T10:13:34.544Z,95402
2023-05-20T10:14:43.222Z,95400
2023-05-20T10:15:52.998Z,95394
2023-05-20T10:17:01.660Z,95395
2023-05-20T10:18:10.318Z,95399
2023-05-20T10:19:19.043Z,95399
2023-05-20T10:20:27.710Z,95394
2023-05-20T10:21:37.461Z,95394
2023-05-20T10:22:46.074Z,95401
2023-05-20T10:23:54.751Z,95399
2023-05-20T10:25:05.492Z,95400
2023-05-20T10:26:14.155Z,95400
2023-05-20T10:27:22.824Z,95401
2023-05-20T10:28:31.488Z,95400
2023-05-20T10:29:40.173Z,95395
2023-05-20T10:30:49.916Z,95398
2023-05-20T10:31:58.569Z,95398
2023-05-20T10:33:07.405Z,95394
2023-05-20T10:34:16.909Z,95392
2023-05-20T10:35:25.616Z,95390
2023-05-20T10:36:34.280Z,95388
2023-05-20T10:37:44.981Z,95381
2023-05-20T10:38:53.781Z,95385
2023-05-20T10:40:03.318Z,95387
2023-05-20T10:41:12.028Z,95376
2023-05-20T10:42:20.671Z,95380
2023-05-20T10:43:29.355Z,95379
2023-05-20T10:44:38.059Z,95381
2023-05-20T10:45:46.680Z,95379
2023-05-20T10:47:16.802Z,95377
2023-05-20T10:48:06.106Z,95378
2023-05-20T10:49:15.687Z,95375
2023-05-20T10:50:24.323Z,95379
2023-05-20T10:51:33.008Z,95374
2023-05-20T10:52:42.704Z,95374
2023-05-20T10:53:49.402Z,95374
2023-05-20T10:54:59.020Z,95375
2023-05-20T10:56:07.699Z,95376
2023-05-20T10:57:17.483Z,95375
2023-05-20T10:58:27.142Z,95374
2023-05-20T10:59:35.786Z,95377
2023-05-20T11:00:44.427Z,95376
2023-05-20T11:01:54.081Z,95373
2023-05-20T11:03:01.866Z,95371
2023-05-20T11:04:10.487Z,95374
2023-05-20T11:05:19.081Z,95363
2023-05-20T11:06:28.831Z,95367
2023-05-20T11:07:38.472Z,95365
2023-05-20T11:08:46.108Z,95367
2023-05-20T11:09:53.804Z,95366
2023-05-20T11:11:03.545Z,95358
2023-05-20T11:12:13.374Z,95356
2023-05-20T11:13:21.892Z,95358
2023-05-20T11:14:31.596Z,95358
2023-05-20T11:15:41.286Z,95355
2023-05-20T11:16:51.005Z,95350
2023-05-20T11:17:58.633Z,95346
2023-05-20T11:19:07.293Z,95351
2023-05-20T11:20:16.976Z,95350
2023-05-20T11:21:25.648Z,95352
2023-05-20T11:22:35.355Z,95345
2023-05-20T11:23:44.024Z,95348
2023-05-20T11:24:53.713Z,95345
2023-05-20T11:26:02.467Z,95343
2023-05-20T11:27:11.116Z,95335
2023-05-20T11:28:19.769Z,95346
2023-05-20T11:29:29.428Z,95338
2023-05-20T11:30:38.148Z,95339
2023-05-20T11:31:47.823Z,95334
2023-05-20T11:32:56.487Z,95334
2023-05-20T11:34:05.152Z,95341
2023-05-20T11:35:14.873Z,95336
2023-05-20T11:36:27.727Z,95333
2023-05-20T11:37:33.282Z,95337
2023-05-20T11:38:42.950Z,95335
2023-05-20T11:39:51.774Z,95335
2023-05-20T11:41:01.256Z,95332
2023-05-20T11:42:10.023Z,95331
2023-05-20T11:43:19.630Z,95328
2023-05-20T11:44:29.358Z,95327
2023-05-20T11:45:38.002Z,95323
2023-05-20T11:46:46.672Z,95319
2023-05-20T11:47:56.393Z,95319
2023-05-20T11:49:04.048Z,95325
2023-05-20T11:50:13.716Z,95331
2023-05-20T11:51:23.336Z,95334
2023-05-20T11:52:31.988Z,95323
2023-05-20T11:53:40.658Z,95326
2023-05-20T11:54:49.312Z,95330
2023-05-20T11:55:57.962Z,95331
2023-05-20T11:57:07.647Z,95326
2023-05-20T11:58:16.305Z,95326
2023-05-20T11:59:25.939Z,95321
2023-05-20T12:00:43.213Z,95318
2023-05-20T12:01:44.190Z,95317
2023-05-20T12:02:53.897Z,95313
2023-05-20T12:04:02.850Z,95314
2023-05-20T12:05:12.176Z,95313
2023-05-20T12:06:20.820Z,95317
2023-05-20T12:07:29.501Z,95315
2023-05-20T12:08:39.239Z,95317
2023-05-20T12:09:47.879Z,95310
2023-05-20T12:10:56.517Z,95316
2023-05-20T12:12:05.243Z,95313
2023-05-20T12:13:14.912Z,95316
2023-05-20T12:14:24.676Z,95313
2023-05-20T12:15:34.251Z,95310
2023-05-20T12:16:43.012Z,95307
2023-05-20T12:17:52.729Z,95312
2023-05-20T12:19:00.457Z,95309
2023-05-20T12:20:10.145Z,95311
2023-05-20T12:21:18.797Z,95308
2023-05-20T12:22:28.447Z,95310
2023-05-20T12:23:38.151Z,95303
2023-05-20T12:24:46.815Z,95300
2023-05-20T12:25:55.484Z,95306
2023-05-20T12:27:05.157Z,95308
2023-05-20T12:28:12.983Z,95307
2023-05-20T12:29:22.797Z,95312
2023-05-20T12:30:31.656Z,95307
2023-05-20T12:31:40.339Z,95308
2023-05-20T12:32:49.157Z,95314
2023-05-20T12:33:56.858Z,95300
2023-05-20T12:35:05.538Z,95302
2023-05-20T12:36:15.183Z,95299
2023-05-20T12:37:23.950Z,95302
2023-05-20T12:38:33.708Z,95311
2023-05-20T12:39:41.366Z,95303
2023-05-20T12:40:50.092Z,95305
2023-05-20T12:41:59.752Z,95305
2023-05-20T12:43:08.393Z,95303
2023-05-20T12:44:17.017Z,95303
2023-05-20T12:45:26.716Z,95306
2023-05-20T12:46:35.431Z,95307
2023-05-20T12:47:44.060Z,95301
2023-05-20T12:48:52.726Z,95298
2023-05-20T12:50:02.405Z,95299
2023-05-20T12:51:12.011Z,95302
2023-05-20T12:52:22.593Z,95305
2023-05-20T12:53:29.309Z,95308
2023-05-20T12:54:38.991Z,95303
2023-05-20T12:55:46.641Z,95306
2023-05-20T12:56:55.314Z,95301
2023-05-20T12:58:03.948Z,95299
2023-05-20T12:59:13.582Z,95299
2023-05-20T13:00:23.288Z,95298
2023-05-20T13:01:32.053Z,95304
2023-05-20T13:02:41.734Z,95300
2023-05-20T13:03:51.272Z,95300
2023-05-20T13:04:59.911Z,95299
2023-05-20T13:06:08.641Z,95298
2023-05-20T13:07:18.277Z,95291
2023-05-20T13:08:28.527Z,95297
2023-05-20T13:09:36.599Z,95300
2023-05-20T13:10:45.252Z,95296
2023-05-20T13:11:54.983Z,95295
2023-05-20T13:13:04.665Z,95297
2023-05-20T13:14:15.735Z,95294
2023-05-20T13:15:23.054Z,95289
2023-05-20T13:16:31.742Z,95292
2023-05-20T13:17:40.408Z,95287
2023-05-20T13:18:49.109Z,95285
2023-05-20T13:19:58.708Z,95285
2023-05-20T13:21:07.381Z,95285
2023-05-20T13:22:17.028Z,95285
2023-05-20T13:23:24.797Z,95286
2023-05-20T13:24:34.506Z,95284
2023-05-20T13:25:44.154Z,95287
2023-05-20T13:26:52.881Z,95288
2023-05-20T13:28:02.540Z,95280
2023-05-20T13:29:11.224Z,95284
2023-05-20T13:30:19.946Z,95283
2023-05-20T13:31:29.755Z,95282
2023-05-20T13:32:38.317Z,95276
2023-05-20T13:33:47.933Z,95273
2023-05-20T13:34:58.140Z,95273
2023-05-20T13:36:07.771Z,95265
2023-05-20T13:37:17.502Z,95269
2023-05-20T13:38:25.149Z,95272
2023-05-20T13:39:34.824Z,95266
2023-05-20T13:40:44.465Z,95269
2023-05-20T13:41:53.135Z,95261
2023-05-20T13:43:01.819Z,95263
2023-05-20T13:44:10.460Z,95258
2023-05-20T13:45:20.318Z,95260
2023-05-20T13:46:30.014Z,95254
2023-05-20T13:47:40.145Z,95263
2023-05-20T13:48:49.745Z,95259
2023-05-20T13:49:57.393Z,95259
2023-05-20T13:51:06.148Z,95256
2023-05-20T13:52:15.787Z,95254
2023-05-20T13:53:24.459Z,95255
2023-05-20T13:54:33.107Z,95255
2023-05-20T13:55:42.755Z,95255
2023-05-20T13:56:51.403Z,95248
2023-05-20T13:58:01.057Z,95247
2023-05-20T13:59:08.812Z,95249
2023-05-20T14:00:17.467Z,95246
2023-05-20T14:01:27.171Z,95239
2023-05-20T14:02:34.813Z,95244
2023-05-20T14:03:43.721Z,95243
2023-05-20T14:04:52.165Z,95238
2023-05-20T14:06:00.790Z,95240
2023-05-20T14:07:10.455Z,95238
2023-05-20T14:08:20.121Z,95233
2023-05-20T14:09:28.766Z,95239
2023-05-20T14:10:38.438Z,95244
2023-05-20T14:11:46.137Z,95241
2023-05-20T14:12:55.829Z,95239
2023-05-20T14:14:04.525Z,95237
2023-05-20T14:15:14.174Z,95238
2023-05-20T14:16:23.856Z,95243
2023-05-20T14:17:31.620Z,95236
2023-05-20T14:18:40.251Z,95233
2023-05-20T14:19:49.877Z,95232
2023-05-20T14:20:57.565Z,95231
2023-05-20T14:22:07.227Z,95235
2023-05-20T14:23:16.997Z,95227
2023-05-20T14:24:26.610Z,95227
2023-05-20T14:25:36.280Z,95228
2023-05-20T14:26:45.927Z,95227
2023-05-20T14:27:55.599Z,95226
2023-05-20T14:29:05.300Z,95222
2023-05-20T14:30:14.956Z,95226
2023-05-20T14:31:23.673Z,95221
2023-05-20T14:32:32.293Z,95221
2023-05-20T14:33:41.946Z,95225
2023-05-20T14:34:51.655Z,95222
2023-05-20T14:36:00.329Z,95216
2023-05-20T14:37:10.142Z,95216
2023-05-20T14:38:20.816Z,95219
2023-05-20T14:39:29.443Z,95226
2023-05-20T14:40:39.159Z,95221
2023-05-20T14:41:47.812Z,95218
2023-05-20T14:42:57.485Z,95222
2023-05-20T14:44:07.147Z,95221
2023-05-20T14:45:14.778Z,95223
2023-05-20T14:46:24.473Z,95216
2023-05-20T14:47:34.144Z,95222
2023-05-20T14:48:41.761Z,95220
2023-05-20T14:49:50.462Z,95214